createdAt,value
2023-02-11T08:50:48.471Z,100751.31
2023-02-11T08:53:15.724Z,100747.81
2023-02-11T08:55:52.534Z,100749.79
2023-02-11T08:58:20.410Z,100763.59
2023-02-11T09:00:49.188Z,100754.81
2023-02-11T09:03:17.190Z,100755.10
2023-02-11T09:05:46.699Z,100767.38
2023-02-11T09:08:14.926Z,100762.75
2023-02-11T09:10:48.208Z,100765.64
2023-02-11T09:13:16.814Z,100764.88
2023-02-11T09:15:46.996Z,100769.00
2023-02-11T09:18:14.758Z,100775.75
2023-02-11T09:20:42.540Z,100770.83
2023-02-11T09:23:10.312Z,100775.82
2023-02-11T09:25:41.040Z,100779.44
2023-02-11T09:28:09.253Z,100789.34
2023-02-11T09:30:37.727Z,100780.02
2023-02-11T09:33:05.059Z,100788.55
2023-02-11T09:35:33.915Z,100782.42
2023-02-11T09:38:00.919Z,100781.67
2023-02-11T09:40:28.107Z,100793.38
2023-02-11T09:43:21.792Z,100795.65
2023-02-11T09:45:49.942Z,100800.17
2023-02-11T09:48:23.235Z,100803.61
2023-02-11T09:50:55.009Z,100810.19
2023-02-11T09:53:32.388Z,100814.11
2023-02-11T09:56:01.396Z,100814.23
2023-02-11T09:58:35.560Z,100821.02
2023-02-11T10:01:42.892Z,100819.27
2023-02-11T10:04:59.370Z,100820.08
2023-02-11T10:07:51.506Z,100827.52
2023-02-11T10:10:32.199Z,100828.52
2023-02-11T10:13:05.320Z,100842.75
2023-02-11T10:15:53.529Z,100842.52
2023-02-11T10:18:39.172Z,100848.23
2023-02-11T10:21:08.922Z,100853.74
2023-02-11T10:23:42.941Z,100860.13
2023-02-11T10:26:16.775Z,100862.67
2023-02-11T10:28:51.021Z,100867.86
2023-02-11T10:31:26.058Z,100876.02
2023-02-11T10:34:00.554Z,100879.01
2023-02-11T10:36:31.468Z,100884.04
2023-02-11T10:39:21.748Z,100888.55
2023-02-11T10:41:56.611Z,100886.27
2023-02-11T10:44:34.203Z,100881.67
2023-02-11T10:47:06.245Z,100883.48
2023-02-11T10:49:40.158Z,100880.36
2023-02-11T10:52:18.492Z,100891.13
2023-02-11T10:55:13.791Z,100890.43
2023-02-11T10:57:50.194Z,100897.98
2023-02-11T11:00:18.555Z,100908.04
2023-02-11T11:02:52.669Z,100918.58
2023-02-11T11:05:24.133Z,100922.74
2023-02-11T11:07:59.893Z,100925.86
2023-02-11T11:10:46.727Z,100936.30
2023-02-11T11:13:27.339Z,100949.82
2023-02-11T11:16:26.071Z,100961.16
2023-02-11T11:19:14.396Z,100972.23
2023-02-11T11:21:46.886Z,100980.63
2023-02-11T11:24:40.237Z,100987.64
2023-02-11T11:27:08.328Z,101001.16
2023-02-11T11:29:49.780Z,101008.70
2023-02-11T11:32:27.370Z,101023.74
2023-02-11T11:34:57.495Z,101033.66
2023-02-11T11:37:34.165Z,101028.22
2023-02-11T11:40:22.106Z,101017.80
2023-02-11T11:43:12.683Z,101023.02
2023-02-11T11:45:52.329Z,101033.63
2023-02-11T11:48:25.010Z,101037.65
2023-02-11T11:50:58.000Z,101045.23
2023-02-11T11:53:30.275Z,101045.17
2023-02-11T11:56:19.838Z,101058.11
2023-02-11T11:58:49.242Z,101066.31
2023-02-11T12:01:45.226Z,101073.69
2023-02-11T12:04:33.328Z,101097.19
2023-02-11T12:07:58.912Z,101107.54
2023-02-11T12:10:52.535Z,101106.02
2023-02-11T12:13:37.905Z,101105.83
2023-02-11T12:16:10.956Z,101107.10
2023-02-11T12:19:00.723Z,101108.90
2023-02-11T12:22:01.239Z,101110.73
2023-02-11T12:24:53.013Z,101117.34
2023-02-11T12:28:11.169Z,101134.16
2023-02-11T12:30:56.456Z,101144.55
2023-02-11T12:33:44.681Z,101149.85
2023-02-11T12:36:39.187Z,101154.41
2023-02-11T12:39:34.968Z,101160.17
2023-02-11T12:42:45.775Z,101169.34
2023-02-11T12:45:22.880Z,101175.08
2023-02-11T12:48:11.001Z,101177.41
2023-02-11T12:51:14.606Z,101187.31
2023-02-11T12:53:47.799Z,101188.66
2023-02-11T12:56:21.364Z,101208.18
2023-02-11T12:58:52.841Z,101220.02
2023-02-11T13:01:29.539Z,101223.99
2023-02-11T13:04:22.359Z,101229.39
2023-02-11T13:06:55.980Z,101238.77
2023-02-11T13:09:36.394Z,101254.05
2023-02-11T13:12:25.405Z,101264.67
2023-02-11T13:14:58.793Z,101270.30
2023-02-11T13:17:48.539Z,101277.71
2023-02-11T13:20:37.219Z,101287.67
2023-02-11T13:23:31.576Z,101304.17
2023-02-11T13:26:25.331Z,101316.48
2023-02-11T13:29:16.815Z,101322.36
2023-02-11T13:31:54.583Z,101327.00
2023-02-11T13:34:45.439Z,101344.71
2023-02-11T13:37:35.772Z,101354.73
2023-02-11T13:40:25.624Z,101358.23
2023-02-11T13:43:00.304Z,101373.89
2023-02-11T13:45:46.533Z,101377.45
2023-02-11T13:48:26.609Z,101385.98
2023-02-11T13:51:07.673Z,101397.07
2023-02-11T13:53:50.752Z,101410.96
2023-02-11T13:56:30.475Z,101422.39
2023-02-11T13:59:02.148Z,101429.11
2023-02-11T14:02:07.548Z,101442.13
2023-02-11T14:04:54.087Z,101459.70
2023-02-11T14:07:42.819Z,101466.63
2023-02-11T14:10:46.500Z,101475.49
2023-02-11T14:13:28.450Z,101490.40
2023-02-11T14:16:16.953Z,101504.17
2023-02-11T14:18:47.170Z,101511.54
2023-02-11T14:21:32.536Z,101527.74
2023-02-11T14:24:31.477Z,101539.17
2023-02-11T14:27:13.880Z,101546.91
2023-02-11T14:29:44.216Z,101559.45
2023-02-11T14:32:22.271Z,101572.86
2023-02-11T14:35:27.952Z,101580.37
2023-02-11T14:38:20.640Z,101591.48
2023-02-11T14:41:11.792Z,101606.09
2023-02-11T14:43:47.514Z,101615.08
2023-02-11T14:46:21.249Z,101627.77
2023-02-11T14:48:52.389Z,101635.69
2023-02-11T14:51:31.592Z,101653.01
2023-02-11T14:54:21.359Z,101661.75
2023-02-11T14:57:06.258Z,101673.65
2023-02-11T14:59:33.539Z,101685.02
2023-02-11T15:02:00.981Z,101698.15
2023-02-11T15:04:32.895Z,101701.38
2023-02-11T15:07:08.646Z,101706.45
2023-02-11T15:09:48.694Z,101716.30
2023-02-11T15:12:23.842Z,101724.70
2023-02-11T15:14:54.298Z,101738.23
2023-02-11T15:17:25.613Z,101752.77
2023-02-11T15:20:00.589Z,101769.02
2023-02-11T15:22:33.104Z,101779.20
2023-02-11T15:25:11.028Z,101782.91
2023-02-11T15:28:47.330Z,101790.25
2023-02-11T15:31:17.741Z,101796.71
2023-02-11T15:33:45.003Z,101805.08
2023-02-11T15:36:15.425Z,101810.99
2023-02-11T15:38:42.692Z,101818.98
2023-02-11T15:41:43.742Z,101819.34
2023-02-11T15:44:31.337Z,101823.69
2023-02-11T15:46:59.762Z,101834.80
2023-02-11T15:49:27.447Z,101846.95
2023-02-11T15:52:00.190Z,101852.86
2023-02-11T15:54:31.822Z,101860.17
2023-02-11T15:57:08.276Z,101863.09
2023-02-11T15:59:42.927Z,101871.42
2023-02-11T16:02:25.942Z,101878.17
2023-02-11T16:13:53.712Z,101917.51
2023-02-11T16:16:30.033Z,101927.89
2023-02-11T16:19:06.016Z,101936.89
2023-02-11T16:21:39.626Z,101948.33
2023-02-11T16:24:22.543Z,101955.04
2023-02-11T16:26:53.595Z,101965.73
2023-02-11T16:29:27.606Z,101978.73
2023-02-11T16:32:10.218Z,101988.75
2023-02-11T16:34:39.244Z,101996.35
2023-02-11T16:37:08.052Z,102007.09
2023-02-11T16:39:42.834Z,102016.09
2023-02-11T16:42:14.282Z,102021.59
2023-02-11T16:44:43.719Z,102033.35
2023-02-11T16:47:21.017Z,102041.63
2023-02-11T16:49:48.379Z,102052.52
2023-02-11T16:52:19.044Z,102059.84
2023-02-11T16:54:46.139Z,102064.88
2023-02-11T16:57:21.889Z,102075.10
2023-02-11T16:59:49.813Z,102080.97
2023-02-11T17:02:29.730Z,102090.31
2023-02-11T17:05:01.819Z,102102.20
2023-02-11T17:07:29.225Z,102111.99
2023-02-11T17:09:56.898Z,102120.08
2023-02-11T17:12:26.204Z,102125.60
2023-02-11T17:14:54.167Z,102133.21
2023-02-11T17:17:25.939Z,102142.05
2023-02-11T17:19:55.283Z,102153.66
2023-02-11T17:22:22.554Z,102168.20
2023-02-11T17:24:49.655Z,102175.30
2023-02-11T17:27:18.659Z,102189.31
2023-02-11T17:29:49.296Z,102198.96
2023-02-11T17:32:16.544Z,102205.52
2023-02-11T17:34:44.216Z,102210.40
2023-02-11T17:37:12.906Z,102219.79
2023-02-11T17:39:40.786Z,102228.81
2023-02-11T17:42:09.309Z,102235.92
2023-02-11T17:44:39.739Z,102239.65
2023-02-11T17:47:08.589Z,102246.70
2023-02-11T17:49:38.112Z,102254.10
2023-02-11T17:52:06.072Z,102261.48
2023-02-11T17:54:34.390Z,102267.91
2023-02-11T17:57:29.676Z,102273.42
2023-02-11T17:59:56.924Z,102282.59
2023-02-11T18:02:23.919Z,102290.73
2023-02-11T18:04:52.499Z,102301.27
2023-02-11T18:07:20.110Z,102307.41
2023-02-11T18:09:47.182Z,102313.56
2023-02-11T18:12:14.528Z,102320.73
2023-02-11T18:14:41.885Z,102324.29
2023-02-11T18:17:09.664Z,102338.02
2023-02-11T18:19:37.843Z,102344.33
2023-02-11T18:22:04.812Z,102350.05
2023-02-11T18:24:31.865Z,102354.77
2023-02-11T18:26:58.872Z,102362.41
2023-02-11T18:29:26.000Z,102369.86
2023-02-11T18:31:56.786Z,102380.75
2023-02-11T18:34:24.680Z,102388.76
2023-02-11T18:36:52.124Z,102396.78
2023-02-11T18:39:20.151Z,102404.70
2023-02-11T18:41:47.544Z,102410.14
2023-02-11T18:44:21.095Z,102419.38
2023-02-11T18:46:48.074Z,102425.13
2023-02-11T18:49:15.070Z,102435.70
2023-02-11T18:51:42.108Z,102440.30
2023-02-11T18:54:09.728Z,102447.48
2023-02-11T18:56:36.654Z,102462.77
2023-02-11T18:59:04.351Z,102466.39
2023-02-11T19:01:33.212Z,102466.93
2023-02-11T19:04:03.749Z,102476.83
2023-02-11T19:06:34.489Z,102477.63
2023-02-11T19:09:04.377Z,102478.73
2023-02-11T19:11:49.094Z,102476.73
2023-02-11T19:14:26.507Z,102486.17
2023-02-11T19:16:57.287Z,102502.03
2023-02-11T19:19:28.090Z,102511.64
2023-02-11T19:21:57.080Z,102526.27
2023-02-11T19:24:25.868Z,102527.89
2023-02-11T19:26:57.538Z,102531.98
2023-02-11T19:29:25.178Z,102530.63
2023-02-11T19:31:52.553Z,102541.15
2023-02-11T19:34:20.749Z,102551.86
2023-02-11T19:36:49.263Z,102564.58
2023-02-11T19:39:16.978Z,102578.05
2023-02-11T19:41:44.817Z,102588.04
2023-02-11T19:44:14.100Z,102593.59
2023-02-11T19:46:41.169Z,102605.02
2023-02-11T19:49:10.131Z,102600.14
2023-02-11T19:51:39.583Z,102597.29
2023-02-11T19:54:07.451Z,102598.40
2023-02-11T19:56:34.509Z,102606.77
2023-02-11T19:59:04.926Z,102616.88
2023-02-11T20:01:32.636Z,102618.17
2023-02-11T20:03:59.594Z,102631.27
2023-02-11T20:06:31.532Z,102640.05
2023-02-11T20:09:05.454Z,102638.52
2023-02-11T20:11:33.920Z,102645.42
2023-02-11T20:14:02.340Z,102650.49
2023-02-11T20:16:47.010Z,102648.66
2023-02-11T20:19:22.062Z,102658.39
2023-02-11T20:21:53.804Z,102674.70
2023-02-11T20:24:21.411Z,102670.59
2023-02-11T20:26:49.593Z,102675.12
2023-02-11T20:29:18.105Z,102680.26
2023-02-11T20:31:45.697Z,102691.56
2023-02-11T20:34:13.002Z,102696.11
2023-02-11T20:36:40.988Z,102697.82
2023-02-11T20:39:10.798Z,102703.61
2023-02-11T20:41:41.195Z,102706.86
2023-02-11T20:44:11.299Z,102706.45
2023-02-11T20:46:40.551Z,102710.37
2023-02-11T20:49:08.872Z,102715.44
2023-02-11T20:51:37.493Z,102725.21
2023-02-11T20:54:06.454Z,102733.34
2023-02-11T20:56:37.090Z,102743.48
2023-02-11T20:59:05.790Z,102744.44
2023-02-11T21:01:35.790Z,102743.98
2023-02-11T21:04:23.737Z,102742.25
2023-02-11T21:06:53.827Z,102745.14
2023-02-11T21:09:23.738Z,102755.42
2023-02-11T21:11:52.164Z,102757.33
2023-02-11T21:14:20.237Z,102755.69
2023-02-11T21:16:48.392Z,102761.94
2023-02-11T21:19:15.982Z,102764.30
2023-02-11T21:21:43.211Z,102771.20
2023-02-11T21:24:12.021Z,102777.48
2023-02-11T21:26:39.184Z,102784.05
2023-02-11T21:29:08.689Z,102784.61
2023-02-11T21:31:36.703Z,102784.16
2023-02-11T21:34:05.196Z,102789.73
2023-02-11T21:36:32.255Z,102780.19
2023-02-11T21:39:00.390Z,102789.59
2023-02-11T21:41:27.654Z,102792.64
2023-02-11T21:43:55.003Z,102788.02
2023-02-11T21:46:22.510Z,102788.96
2023-02-11T21:48:50.371Z,102799.41
2023-02-11T21:51:23.841Z,102818.47
2023-02-11T21:53:55.512Z,102829.08
2023-02-11T21:56:23.391Z,102828.87
2023-02-11T21:58:53.733Z,102828.23
2023-02-11T22:01:27.152Z,102829.13
2023-02-11T22:03:54.208Z,102828.23
2023-02-11T22:06:26.361Z,102829.78
2023-02-11T22:08:54.501Z,102834.43
2023-02-11T22:11:22.372Z,102846.80
2023-02-11T22:13:55.315Z,102846.64
2023-02-11T22:16:22.788Z,102849.70
2023-02-11T22:18:50.250Z,102848.18
2023-02-11T22:21:19.911Z,102856.36
2023-02-11T22:23:47.682Z,102858.93
2023-02-11T22:26:21.375Z,102867.80
2023-02-11T22:28:49.595Z,102873.35
2023-02-11T22:31:19.897Z,102876.95
2023-02-11T22:33:47.346Z,102890.92
2023-02-11T22:36:28.943Z,102892.98
2023-02-11T22:38:59.561Z,102897.78
2023-02-11T22:41:26.704Z,102906.98
2023-02-11T22:43:54.276Z,102901.84
2023-02-11T22:46:21.431Z,102905.25
2023-02-11T22:48:49.417Z,102919.00
2023-02-11T22:51:23.527Z,102917.36
2023-02-11T22:53:55.748Z,102921.37
2023-02-11T22:56:23.760Z,102924.96
2023-02-11T22:58:52.117Z,102916.66
2023-02-11T23:01:19.387Z,102914.84
2023-02-11T23:03:46.398Z,102920.80
2023-02-11T23:06:14.074Z,102923.51
2023-02-11T23:08:43.542Z,102930.39
2023-02-11T23:11:17.211Z,102935.91
2023-02-11T23:13:45.619Z,102935.80
2023-02-11T23:16:16.619Z,102932.72
2023-02-11T23:18:45.154Z,102932.39
2023-02-11T23:21:22.395Z,102929.21
2023-02-11T23:23:55.848Z,102928.76
2023-02-11T23:26:23.015Z,102931.42
2023-02-11T23:28:50.505Z,102930.33
2023-02-11T23:31:21.112Z,102934.27
2023-02-11T23:33:49.068Z,102940.77
2023-02-11T23:36:17.353Z,102945.96
2023-02-11T23:38:44.841Z,102956.52
2023-02-11T23:41:12.167Z,102950.33
2023-02-11T23:43:39.530Z,102955.00
2023-02-11T23:46:08.032Z,102957.39
2023-02-11T23:48:36.773Z,102957.16
2023-02-11T23:51:04.205Z,102955.18
2023-02-11T23:53:31.302Z,102951.15
2023-02-11T23:55:58.478Z,102950.06
2023-02-11T23:58:25.512Z,102943.86
